Time;durP1;ratioP1;P1;durP2;ratioP2;P2;SDS_P1;SDS_P2;PMS_P1;PMS_P2;Temp;Humidity;BMP_temperature;BMP_pressure;BME280_temperature;BME280_humidity;BME280_pressure;Samples;Min_cycle;Max_cycle;Signal;HPM_P1;HPM_P2
2022/03/28 00:00:50;;;;;;;;;72.20;54.80;25.10;99.90;;;;;;5038453;28;8720;-73
2022/03/28 00:03:16;;;;;;;;;75.20;60.80;25.20;99.90;;;;;;5027560;28;8791;-71
2022/03/28 00:05:43;;;;;;;;;70.80;57.80;25.20;99.90;;;;;;5017695;28;8788;-68
2022/03/28 00:08:09;;;;;;;;;72.00;56.60;25.30;99.90;;;;;;5017951;28;8768;-69
2022/03/28 00:10:36;;;;;;;;;79.80;71.60;25.20;99.90;;;;;;5016207;28;8773;-68
2022/03/28 00:13:03;;;;;;;;;76.40;64.80;25.20;99.90;;;;;;5017151;28;8761;-72
2022/03/28 00:15:30;;;;;;;;;76.80;59.40;25.10;99.90;;;;;;5017303;28;8794;-64
2022/03/28 00:17:57;;;;;;;;;75.80;62.60;25.10;99.90;;;;;;5023379;28;8800;-69
2022/03/28 00:20:24;;;;;;;;;74.20;60.40;25.10;99.90;;;;;;5036133;28;8759;-65
2022/03/28 00:22:51;;;;;;;;;80.80;71.40;25.10;99.90;;;;;;5037246;28;9424;-68
2022/03/28 00:25:17;;;;;;;;;80.60;71.40;25.10;99.90;;;;;;5037849;28;8742;-68
2022/03/28 00:27:44;;;;;;;;;83.80;72.40;25.10;99.90;;;;;;5037445;28;8793;-64
2022/03/28 00:30:11;;;;;;;;;78.80;71.20;25.10;99.90;;;;;;5036011;28;8769;-69
2022/03/28 00:32:38;;;;;;;;;81.20;74.60;25.10;99.90;;;;;;5032283;28;9845;-66
2022/03/28 00:35:05;;;;;;;;;90.00;83.80;25.00;99.90;;;;;;5017340;28;8800;-60
2022/03/28 00:37:32;;;;;;;;;80.80;73.40;25.10;99.90;;;;;;5017614;28;9394;-71
2022/03/28 00:39:58;;;;;;;;;88.00;79.00;25.20;99.90;;;;;;5018106;28;8732;-63
2022/03/28 00:42:25;;;;;;;;;87.60;75.00;25.20;99.90;;;;;;5017628;28;8753;-67
2022/03/28 00:44:55;;;;;;;;;83.00;74.20;25.30;99.90;;;;;;5017631;28;8772;-68
2022/03/28 00:47:21;;;;;;;;;82.60;72.20;25.20;99.90;;;;;;5019665;28;8842;-69
2022/03/28 00:49:48;;;;;;;;;75.20;66.60;25.20;99.90;;;;;;5037202;28;9387;-68
2022/03/28 00:52:15;;;;;;;;;81.40;74.40;25.20;99.90;;;;;;5037772;28;8785;-68
2022/03/28 00:54:41;;;;;;;;;78.60;71.00;25.30;99.90;;;;;;5035890;28;8864;-68
2022/03/28 00:57:08;;;;;;;;;80.20;70.60;25.30;99.90;;;;;;5035422;28;8756;-68
2022/03/28 00:59:36;;;;;;;;;79.40;69.80;25.40;99.90;;;;;;5036536;28;8852;-70
2022/03/28 01:02:02;;;;;;;;;83.20;78.40;25.40;99.90;;;;;;5019075;28;9127;-68
2022/03/28 01:04:32;;;;;;;;;79.20;73.20;25.40;99.90;;;;;;5016732;28;8749;-62
2022/03/28 01:06:58;;;;;;;;;78.60;70.20;25.40;99.90;;;;;;5016354;28;9410;-71
2022/03/28 01:09:25;;;;;;;;;80.00;71.60;25.60;99.90;;;;;;5015434;28;8751;-67
2022/03/28 01:11:52;;;;;;;;;81.80;75.60;25.60;99.90;;;;;;5015627;28;8776;-71
2022/03/28 01:14:19;;;;;;;;;79.80;71.80;25.50;99.90;;;;;;5007650;28;8764;-65
2022/03/28 01:19:30;;;;;;;;;76.80;68.80;25.40;99.90;;;;;;5016469;28;9381;-71
2022/03/28 01:21:57;;;;;;;;;83.00;73.40;25.60;99.90;;;;;;5017227;28;8882;-62
2022/03/28 01:24:23;;;;;;;;;80.20;69.60;25.60;99.90;;;;;;5016686;28;8732;-71
2022/03/28 01:26:53;;;;;;;;;82.80;72.60;25.60;99.90;;;;;;5016543;28;9468;-71
2022/03/28 01:29:19;;;;;;;;;76.60;67.40;25.70;99.90;;;;;;5031309;28;8781;-62
2022/03/28 01:31:46;;;;;;;;;85.20;75.00;25.80;99.90;;;;;;5033164;28;8810;-68
2022/03/28 01:34:17;;;;;;;;;80.20;71.00;25.90;99.90;;;;;;5033863;28;8867;-71
2022/03/28 01:36:45;;;;;;;;;87.40;78.60;25.90;99.90;;;;;;5020156;28;8748;-68
2022/03/28 01:39:16;;;;;;;;;80.00;75.60;26.00;99.90;;;;;;5020097;28;8757;-73
2022/03/28 01:41:42;;;;;;;;;84.00;76.20;25.90;99.90;;;;;;5020638;28;9373;-72
2022/03/28 01:44:09;;;;;;;;;81.80;74.80;25.90;99.90;;;;;;5019266;28;8830;-65
2022/03/28 01:46:46;;;;;;;;;77.60;70.00;25.90;99.90;;;;;;5020300;28;8896;-70
2022/03/28 01:49:16;;;;;;;;;83.60;77.40;26.10;99.90;;;;;;5038119;28;8746;-70
2022/03/28 01:51:43;;;;;;;;;89.20;80.80;26.20;99.90;;;;;;5039633;28;8738;-69
2022/03/28 01:54:10;;;;;;;;;87.60;76.60;26.10;99.90;;;;;;5039905;28;8869;-69
2022/03/28 01:56:37;;;;;;;;;80.20;70.80;26.10;99.90;;;;;;5039588;28;8766;-70
2022/03/28 01:59:04;;;;;;;;;75.20;61.00;26.10;99.90;;;;;;5040143;28;8750;-66
2022/03/28 02:01:31;;;;;;;;;78.80;73.00;26.00;99.90;;;;;;5039904;28;8840;-68
2022/03/28 02:03:58;;;;;;;;;84.00;75.00;26.20;99.90;;;;;;5023706;28;8894;-71
2022/03/28 02:06:25;;;;;;;;;77.40;72.00;26.20;99.90;;;;;;5020111;28;8743;-65
2022/03/28 02:08:51;;;;;;;;;86.80;81.80;26.30;99.90;;;;;;5019721;28;9410;-71
2022/03/28 02:11:18;;;;;;;;;83.80;76.60;26.30;99.90;;;;;;5019600;28;8761;-66
2022/03/28 02:13:44;;;;;;;;;83.40;78.80;26.30;99.90;;;;;;5020145;28;8959;-70
2022/03/28 02:16:11;;;;;;;;;79.80;70.80;26.40;99.90;;;;;;5020680;28;8787;-70
2022/03/28 02:18:38;;;;;;;;;87.80;79.60;26.50;99.90;;;;;;5031979;28;8860;-66
2022/03/28 02:21:05;;;;;;;;;81.00;71.80;26.50;99.90;;;;;;5039481;28;8733;-72
2022/03/28 02:23:32;;;;;;;;;79.40;72.00;26.60;99.90;;;;;;5039225;28;8722;-68
2022/03/28 02:25:59;;;;;;;;;82.80;73.60;26.50;99.90;;;;;;5039387;28;8770;-72
2022/03/28 02:28:26;;;;;;;;;89.20;80.20;26.60;99.90;;;;;;5037927;28;8817;-70
2022/03/28 02:30:55;;;;;;;;;87.40;81.60;26.70;99.90;;;;;;5039543;28;8833;-67
2022/03/28 02:33:22;;;;;;;;;83.00;76.60;26.70;99.90;;;;;;5028431;28;9471;-72
2022/03/28 02:35:49;;;;;;;;;84.40;79.20;26.70;99.90;;;;;;5018015;28;8780;-68
2022/03/28 02:38:15;;;;;;;;;88.40;82.20;26.80;99.90;;;;;;5019595;28;8760;-68
2022/03/28 02:40:42;;;;;;;;;80.00;73.20;26.80;99.90;;;;;;5019914;28;8789;-70
2022/03/28 02:43:09;;;;;;;;;81.60;73.60;26.90;99.90;;;;;;5019065;28;8771;-70
2022/03/28 02:45:36;;;;;;;;;90.80;84.20;26.90;99.90;;;;;;5018535;28;9437;-68
2022/03/28 02:48:04;;;;;;;;;82.00;75.80;27.00;99.90;;;;;;5027004;28;8778;-68
2022/03/28 02:50:31;;;;;;;;;83.40;78.60;27.00;99.90;;;;;;5038783;28;8766;-70
2022/03/28 02:52:58;;;;;;;;;86.60;83.20;27.10;99.90;;;;;;5039211;28;8968;-72
2022/03/28 02:55:25;;;;;;;;;79.20;73.80;27.20;99.90;;;;;;5038531;28;8761;-67
2022/03/28 02:57:52;;;;;;;;;84.60;78.00;27.20;99.90;;;;;;5039521;28;8723;-70
2022/03/28 03:00:18;;;;;;;;;90.00;82.00;27.20;99.90;;;;;;5038801;28;8754;-70
2022/03/28 03:02:45;;;;;;;;;77.20;71.20;27.20;99.90;;;;;;5033429;28;8764;-66
2022/03/28 03:05:12;;;;;;;;;82.60;77.40;27.30;99.90;;;;;;5017756;28;8797;-70
2022/03/28 03:07:39;;;;;;;;;80.60;74.60;27.50;99.90;;;;;;5017590;28;8836;-68
2022/03/28 03:10:06;;;;;;;;;82.00;80.60;27.60;99.90;;;;;;5019541;28;8741;-68
2022/03/28 03:12:33;;;;;;;;;82.60;76.20;27.70;99.90;;;;;;5018483;28;8757;-72
2022/03/28 03:14:59;;;;;;;;;81.20;75.40;27.70;99.90;;;;;;5019070;28;8760;-66
2022/03/28 03:17:26;;;;;;;;;77.20;64.60;27.80;99.90;;;;;;5021209;28;8832;-71
2022/03/28 03:19:52;;;;;;;;;81.60;78.60;27.80;99.90;;;;;;5038336;28;8757;-67
2022/03/28 03:22:19;;;;;;;;;83.00;78.20;27.80;99.90;;;;;;5038780;28;8785;-68
2022/03/28 03:24:46;;;;;;;;;76.20;67.80;27.90;99.90;;;;;;5038431;28;8734;-72
2022/03/28 03:27:13;;;;;;;;;78.80;73.40;27.90;99.90;;;;;;5037376;28;8816;-62
2022/03/28 03:29:40;;;;;;;;;81.20;76.80;27.90;99.90;;;;;;5038085;28;8786;-72
2022/03/28 03:32:07;;;;;;;;;77.60;70.60;28.00;99.90;;;;;;5037786;28;8785;-72
2022/03/28 03:34:34;;;;;;;;;82.20;72.20;28.10;99.90;;;;;;5018269;28;8740;-67
2022/03/28 03:37:01;;;;;;;;;85.80;77.40;28.20;99.90;;;;;;5017324;28;8771;-68
2022/03/28 03:39:27;;;;;;;;;74.80;65.80;28.30;99.90;;;;;;5018110;28;9126;-72
2022/03/28 03:41:54;;;;;;;;;77.40;68.40;28.40;99.90;;;;;;5017232;28;8736;-67
2022/03/28 03:44:21;;;;;;;;;80.00;75.20;28.40;99.90;;;;;;5016873;28;8789;-71
2022/03/28 03:46:48;;;;;;;;;79.40;71.20;28.40;99.90;;;;;;5018287;28;8740;-68
2022/03/28 03:49:18;;;;;;;;;80.00;71.60;28.40;99.90;;;;;;5036239;28;8836;-69
2022/03/28 03:51:44;;;;;;;;;80.00;71.80;28.40;99.90;;;;;;5038083;28;8742;-73
2022/03/28 03:54:11;;;;;;;;;76.80;69.00;28.40;99.90;;;;;;5037226;28;8807;-67
2022/03/28 03:56:41;;;;;;;;;74.20;67.60;28.40;99.90;;;;;;5037454;28;8758;-71
2022/03/28 03:59:07;;;;;;;;;82.00;76.20;28.50;99.90;;;;;;5037561;28;8730;-66
2022/03/28 04:01:34;;;;;;;;;80.00;72.60;28.50;99.90;;;;;;5037777;28;8746;-70
2022/03/28 04:04:01;;;;;;;;;77.20;70.20;28.60;99.90;;;;;;5021219;28;8856;-69
2022/03/28 04:06:27;;;;;;;;;78.00;72.60;28.80;99.90;;;;;;5017583;28;8741;-70
2022/03/28 04:08:59;;;;;;;;;79.60;71.40;28.90;99.90;;;;;;5017733;28;9430;-66
2022/03/28 04:11:25;;;;;;;;;78.60;68.40;28.90;99.90;;;;;;5017592;28;8748;-70
2022/03/28 04:13:52;;;;;;;;;79.40;71.80;28.70;99.90;;;;;;5017696;28;9416;-68
2022/03/28 04:16:19;;;;;;;;;73.60;63.20;28.80;99.90;;;;;;5016351;28;8830;-70
2022/03/28 04:18:45;;;;;;;;;80.40;72.20;28.90;99.90;;;;;;5030994;28;8748;-71
2022/03/28 04:21:12;;;;;;;;;81.20;73.80;28.90;99.90;;;;;;5037387;28;8839;-47
2022/03/28 04:23:39;;;;;;;;;81.20;73.00;29.10;99.90;;;;;;5037329;28;8908;-67
2022/03/28 04:26:05;;;;;;;;;78.80;73.80;29.10;99.90;;;;;;5037468;28;8746;-62
2022/03/28 04:28:32;;;;;;;;;84.60;79.20;29.10;99.90;;;;;;5035773;28;8782;-71
2022/03/28 04:30:58;;;;;;;;;80.20;73.20;29.20;99.90;;;;;;5037675;28;9526;-74
2022/03/28 04:33:25;;;;;;;;;83.20;78.80;29.20;99.90;;;;;;5026047;28;8777;-74
2022/03/28 04:35:54;;;;;;;;;74.80;68.80;29.30;99.90;;;;;;5017591;28;8805;-71
2022/03/28 04:38:20;;;;;;;;;78.20;72.60;29.60;99.90;;;;;;5017500;28;8776;-68
2022/03/28 04:40:47;;;;;;;;;75.20;66.60;29.60;99.90;;;;;;5017122;28;8749;-70
2022/03/28 04:43:14;;;;;;;;;71.20;57.80;29.40;99.90;;;;;;5017497;28;8791;-68
2022/03/28 04:45:40;;;;;;;;;77.40;69.00;29.70;99.90;;;;;;5015792;28;8761;-75
2022/03/28 04:48:07;;;;;;;;;73.20;57.20;29.90;99.90;;;;;;5025360;28;8774;-75
2022/03/28 04:50:34;;;;;;;;;73.60;62.60;29.90;99.90;;;;;;5037072;28;8758;-68
2022/03/28 04:53:04;;;;;;;;;74.80;61.80;29.70;99.90;;;;;;5036876;28;8782;-68
2022/03/28 04:55:31;;;;;;;;;73.20;64.40;29.70;99.90;;;;;;5036429;28;8809;-74
2022/03/28 04:57:57;;;;;;;;;64.60;51.20;29.80;99.90;;;;;;5037280;28;8742;-55
2022/03/28 05:00:24;;;;;;;;;71.00;62.60;29.80;99.90;;;;;;5036662;28;8839;-74
2022/03/28 05:02:51;;;;;;;;;77.20;66.60;29.90;99.90;;;;;;5029289;28;8780;-72
2022/03/28 05:05:17;;;;;;;;;72.80;62.80;30.10;99.90;;;;;;5015480;28;8781;-61
2022/03/28 05:07:44;;;;;;;;;72.60;62.60;30.20;99.90;;;;;;5016409;28;8737;-68
2022/03/28 05:10:11;;;;;;;;;71.80;59.40;30.00;99.90;;;;;;5016419;28;8713;-74
2022/03/28 05:12:37;;;;;;;;;72.20;61.20;30.10;99.90;;;;;;5016597;28;8769;-67
2022/03/28 05:15:04;;;;;;;;;73.60;62.00;30.40;99.90;;;;;;5017030;28;8745;-67
2022/03/28 05:17:31;;;;;;;;;67.60;55.20;30.30;99.90;;;;;;5018555;28;9496;-68
2022/03/28 05:19:59;;;;;;;;;51.60;42.80;30.50;99.90;;;;;;5035532;28;8780;-69
2022/03/28 05:22:25;;;;;;;;;70.60;57.20;30.50;99.90;;;;;;5036151;28;8840;-71
2022/03/28 05:24:52;;;;;;;;;66.60;55.60;30.60;99.90;;;;;;5037227;28;8847;-65
2022/03/28 05:27:19;;;;;;;;;69.00;53.40;30.50;99.90;;;;;;5036642;28;8773;-65
2022/03/28 05:29:46;;;;;;;;;69.00;54.00;30.60;99.80;;;;;;5036703;28;8749;-74
2022/03/28 05:32:13;;;;;;;;;64.20;52.60;30.70;99.40;;;;;;5035702;28;8962;-74
2022/03/28 05:34:39;;;;;;;;;65.60;51.60;30.70;99.40;;;;;;5016422;28;8840;-67
2022/03/28 05:37:16;;;;;;;;;63.80;51.40;30.90;98.90;;;;;;5016845;28;8867;-67
2022/03/28 05:39:44;;;;;;;;;63.60;52.20;30.90;98.80;;;;;;5016620;28;8744;-72
2022/03/28 05:42:10;;;;;;;;;64.80;52.00;31.10;99.40;;;;;;5016844;28;9378;-64
2022/03/28 05:44:38;;;;;;;;;63.40;51.80;30.80;98.60;;;;;;5016504;28;8769;-73
2022/03/28 05:47:05;;;;;;;;;67.40;54.00;30.80;98.40;;;;;;5015384;28;8783;-73
2022/03/28 05:49:32;;;;;;;;;66.00;50.80;30.90;99.00;;;;;;5035890;28;8738;-73
2022/03/28 05:51:58;;;;;;;;;59.20;48.20;30.80;98.30;;;;;;5036901;28;8734;-67
2022/03/28 05:54:25;;;;;;;;;68.00;52.80;30.80;98.20;;;;;;5034583;28;8746;-70
2022/03/28 05:56:52;;;;;;;;;69.60;54.60;30.90;98.70;;;;;;5036284;28;8784;-69
2022/03/28 05:59:19;;;;;;;;;61.80;50.80;31.00;98.50;;;;;;5036377;28;8867;-67
2022/03/28 06:01:46;;;;;;;;;61.60;50.00;31.40;98.30;;;;;;5036110;28;8761;-71
2022/03/28 06:04:13;;;;;;;;;57.00;46.60;31.20;98.20;;;;;;5017868;28;8749;-73
2022/03/28 06:06:39;;;;;;;;;66.40;51.20;31.10;97.60;;;;;;5016433;28;8737;-68
2022/03/28 06:09:08;;;;;;;;;64.40;52.20;31.20;98.40;;;;;;5016358;28;8752;-73
2022/03/28 06:11:35;;;;;;;;;60.00;49.20;31.60;97.90;;;;;;5015113;28;8732;-63
2022/03/28 06:14:03;;;;;;;;;69.80;54.00;31.40;98.00;;;;;;5016155;28;8716;-72
2022/03/28 06:16:30;;;;;;;;;60.20;47.60;31.40;97.90;;;;;;5016369;28;8745;-72
2022/03/28 06:18:57;;;;;;;;;66.00;52.60;31.40;98.30;;;;;;5034699;28;8750;-67
2022/03/28 06:21:24;;;;;;;;;63.60;51.00;31.40;98.40;;;;;;5039389;28;9434;-73
2022/03/28 06:23:50;;;;;;;;;61.20;50.20;31.20;99.10;;;;;;5039386;28;8769;-72
2022/03/28 06:26:17;;;;;;;;;53.60;45.60;31.40;97.90;;;;;;5038305;28;8770;-67
2022/03/28 06:28:49;;;;;;;;;57.60;48.20;31.50;97.50;;;;;;5039517;28;9159;-69
2022/03/28 06:31:15;;;;;;;;;61.00;50.20;31.70;97.20;;;;;;5040097;28;8790;-69
2022/03/28 06:33:42;;;;;;;;;64.00;51.60;31.80;97.80;;;;;;5025633;28;8795;-71
2022/03/28 06:36:09;;;;;;;;;59.40;48.20;31.60;97.70;;;;;;5019695;28;8801;-70
2022/03/28 06:38:36;;;;;;;;;64.60;50.80;31.60;97.70;;;;;;5019710;28;8867;-68
2022/03/28 06:41:03;;;;;;;;;61.80;48.80;31.80;97.40;;;;;;5019729;28;9059;-72
2022/03/28 06:43:30;;;;;;;;;63.00;52.00;31.80;97.70;;;;;;5019357;28;8725;-67
2022/03/28 06:45:57;;;;;;;;;65.20;52.60;32.00;97.50;;;;;;5020240;28;8741;-65
2022/03/28 06:48:23;;;;;;;;;64.00;52.00;32.00;97.30;;;;;;5029534;28;8806;-72
2022/03/28 06:50:53;;;;;;;;;57.40;47.20;32.10;97.40;;;;;;5039760;28;8742;-60
2022/03/28 06:53:19;;;;;;;;;58.60;46.60;32.20;95.90;;;;;;5038118;28;8765;-67
2022/03/28 06:55:46;;;;;;;;;65.60;51.40;32.10;96.50;;;;;;5039720;28;9387;-69
2022/03/28 06:58:12;;;;;;;;;66.40;53.00;32.00;96.80;;;;;;5040272;28;8765;-68
2022/03/28 07:00:39;;;;;;;;;64.00;52.60;32.00;96.80;;;;;;5038186;28;8834;-72
2022/03/28 07:03:07;;;;;;;;;65.20;52.80;32.00;97.00;;;;;;5031191;28;8804;-62
2022/03/28 07:05:35;;;;;;;;;60.20;47.20;32.00;97.30;;;;;;5019130;28;8783;-72
2022/03/28 07:08:01;;;;;;;;;67.60;53.40;32.00;96.30;;;;;;5019223;28;8780;-64
2022/03/28 07:10:28;;;;;;;;;61.00;49.40;31.80;96.50;;;;;;5018783;28;8815;-64
2022/03/28 07:12:55;;;;;;;;;57.60;45.00;32.00;96.80;;;;;;5019519;28;8753;-73
2022/03/28 07:15:22;;;;;;;;;60.60;50.40;32.20;95.70;;;;;;5017228;28;8856;-63
2022/03/28 07:17:54;;;;;;;;;61.80;50.80;32.20;95.50;;;;;;5024370;28;8754;-69
2022/03/28 07:20:24;;;;;;;;;60.20;49.00;32.00;96.10;;;;;;5038886;28;8777;-68
2022/03/28 07:22:54;;;;;;;;;58.80;48.00;31.90;95.40;;;;;;5037722;28;8742;-68
2022/03/28 07:25:24;;;;;;;;;62.40;50.20;31.80;95.90;;;;;;5039276;28;8772;-69
2022/03/28 07:27:52;;;;;;;;;63.60;50.20;32.00;96.30;;;;;;5039275;28;8792;-71
2022/03/28 07:30:19;;;;;;;;;63.00;51.20;32.10;96.40;;;;;;5037789;28;8765;-58
2022/03/28 07:32:45;;;;;;;;;60.80;49.40;32.50;95.80;;;;;;5033196;28;8780;-70
2022/03/28 07:35:13;;;;;;;;;63.20;51.80;32.60;94.80;;;;;;5017266;28;8865;-73
2022/03/28 07:37:41;;;;;;;;;61.80;50.40;32.50;94.80;;;;;;5017945;28;8838;-70
2022/03/28 07:40:08;;;;;;;;;62.60;51.40;32.40;95.10;;;;;;5019021;28;8741;-59
2022/03/28 07:42:40;;;;;;;;;62.80;50.60;32.30;95.40;;;;;;5050502;28;8764;-67
2022/03/28 07:45:08;;;;;;;;;60.80;49.20;32.40;95.00;;;;;;5018310;28;8760;-74
2022/03/28 07:47:35;;;;;;;;;60.60;49.20;32.50;94.80;;;;;;5053683;28;8782;-71
2022/03/28 07:50:02;;;;;;;;;61.00;49.40;32.50;94.40;;;;;;5036921;28;8790;-73
2022/03/28 07:52:29;;;;;;;;;61.40;49.00;32.30;94.60;;;;;;5037517;28;8733;-73
2022/03/28 07:54:56;;;;;;;;;61.40;49.60;32.40;94.40;;;;;;5037467;28;8757;-68
2022/03/28 07:57:23;;;;;;;;;63.20;49.00;32.40;94.80;;;;;;5036516;28;8738;-71
2022/03/28 07:59:50;;;;;;;;;62.00;50.80;32.30;94.90;;;;;;5037891;28;8718;-73
2022/03/28 08:02:20;;;;;;;;;59.80;47.20;32.40;94.80;;;;;;5035168;28;8792;-70
2022/03/28 08:04:46;;;;;;;;;57.60;47.00;32.20;94.90;;;;;;5017771;28;9478;-69
2022/03/28 08:07:13;;;;;;;;;58.20;46.20;32.40;95.00;;;;;;5018904;28;8736;-69
2022/03/28 08:09:40;;;;;;;;;57.20;46.00;32.80;94.40;;;;;;5016678;28;8725;-74
2022/03/28 08:12:08;;;;;;;;;62.20;50.40;32.90;93.70;;;;;;5017999;28;8768;-65
2022/03/28 08:14:34;;;;;;;;;62.20;48.00;32.80;93.20;;;;;;5049367;28;8741;-72
2022/03/28 08:17:01;;;;;;;;;64.60;50.60;33.00;92.60;;;;;;5017646;28;8883;-60
2022/03/28 08:19:28;;;;;;;;;62.00;49.00;33.00;93.50;;;;;;5036063;28;9355;-73
2022/03/28 08:21:55;;;;;;;;;61.60;49.80;32.80;93.10;;;;;;5037887;28;8727;-67
2022/03/28 08:24:21;;;;;;;;;58.60;47.20;32.80;93.20;;;;;;5035900;28;8722;-70
2022/03/28 08:26:51;;;;;;;;;61.40;49.40;32.60;92.90;;;;;;5036915;28;8770;-72
2022/03/28 08:29:17;;;;;;;;;62.20;50.00;32.70;93.60;;;;;;5035960;28;8852;-62
2022/03/28 08:31:44;;;;;;;;;60.60;48.40;32.70;94.40;;;;;;5035495;28;8798;-64
2022/03/28 08:34:11;;;;;;;;;61.60;49.20;32.90;93.50;;;;;;5020914;28;8822;-73
2022/03/28 08:36:37;;;;;;;;;66.20;50.60;33.30;93.10;;;;;;5016703;28;8851;-56
2022/03/28 08:39:05;;;;;;;;;53.40;45.20;33.10;93.00;;;;;;5017564;28;8860;-72
2022/03/28 08:41:32;;;;;;;;;54.60;45.60;33.00;94.20;;;;;;5017359;28;8790;-68
2022/03/28 08:43:59;;;;;;;;;61.60;50.40;33.10;93.40;;;;;;5018048;28;8806;-68
2022/03/28 08:46:29;;;;;;;;;61.40;49.40;33.00;93.50;;;;;;5017961;28;8745;-70
2022/03/28 08:48:57;;;;;;;;;59.40;48.40;33.00;93.20;;;;;;5032731;28;8770;-61
2022/03/28 08:51:24;;;;;;;;;57.80;46.80;32.80;93.60;;;;;;5036869;28;8805;-69
2022/03/28 08:53:50;;;;;;;;;60.60;47.80;32.80;93.00;;;;;;5035545;28;8861;-68
2022/03/28 08:56:17;;;;;;;;;60.80;50.40;32.80;92.90;;;;;;5068766;28;8785;-62
2022/03/28 08:58:44;;;;;;;;;60.60;48.00;32.70;92.50;;;;;;5035795;28;8734;-70
2022/03/28 09:01:10;;;;;;;;;64.00;51.00;32.80;93.00;;;;;;5037296;28;8831;-69
2022/03/28 09:03:47;;;;;;;;;63.00;50.00;32.80;93.00;;;;;;5023275;28;8779;-59
2022/03/28 09:06:32;;;;;;;;;59.80;46.00;33.00;93.90;;;;;;5017119;28;8776;-71
2022/03/28 09:09:24;;;;;;;;;55.60;46.80;32.90;93.10;;;;;;5017585;28;9574;-70
2022/03/28 09:11:54;;;;;;;;;60.40;48.60;32.80;93.10;;;;;;5008908;28;8815;-71
2022/03/28 09:14:35;;;;;;;;;60.00;48.40;33.00;92.20;;;;;;5032526;28;8776;-67
2022/03/28 09:17:13;;;;;;;;;59.60;48.20;32.70;92.60;;;;;;5016192;28;8773;-71
2022/03/28 09:19:53;;;;;;;;;58.00;47.00;32.90;93.30;;;;;;5016623;28;8752;-71
2022/03/28 09:22:30;;;;;;;;;61.80;49.00;32.70;94.10;;;;;;5017534;28;8831;-67
2022/03/28 09:25:01;;;;;;;;;61.20;49.00;32.60;93.50;;;;;;5017581;28;8747;-73
2022/03/28 09:27:29;;;;;;;;;63.00;50.20;32.40;94.10;;;;;;5016893;28;8808;-64
2022/03/28 09:30:22;;;;;;;;;60.00;48.20;32.30;93.70;;;;;;5048581;28;9011;-72
2022/03/28 09:32:53;;;;;;;;;59.20;48.40;32.70;93.50;;;;;;5022348;28;8789;-65
2022/03/28 09:35:27;;;;;;;;;63.00;49.20;32.80;93.10;;;;;;5036381;28;8746;-70
2022/03/28 09:38:08;;;;;;;;;60.20;49.60;32.70;93.20;;;;;;5036066;28;8774;-68
2022/03/28 09:40:45;;;;;;;;;64.20;50.00;32.70;93.70;;;;;;5035108;28;8835;-70
2022/03/28 09:43:23;;;;;;;;;62.20;49.60;32.70;93.50;;;;;;5037366;28;8770;-72
2022/03/28 09:45:53;;;;;;;;;59.80;47.20;32.60;93.90;;;;;;5036333;28;8774;-62
2022/03/28 09:48:22;;;;;;;;;61.40;49.40;32.60;94.00;;;;;;5026541;28;8796;-72
2022/03/28 09:50:49;;;;;;;;;61.00;49.00;32.60;94.00;;;;;;5015386;28;9413;-71
2022/03/28 09:53:25;;;;;;;;;64.20;49.60;32.60;94.10;;;;;;5018677;28;8871;-55
2022/03/28 09:56:00;;;;;;;;;62.80;50.00;32.60;94.00;;;;;;5020054;28;9487;-60
2022/03/28 09:58:57;;;;;;;;;57.80;46.00;32.50;94.20;;;;;;5020604;28;8756;-74
2022/03/28 10:01:30;;;;;;;;;60.60;48.00;32.50;94.60;;;;;;5020881;28;8753;-66
2022/03/28 10:04:05;;;;;;;;;62.40;50.00;32.50;94.30;;;;;;5035318;28;9403;-66
2022/03/28 10:06:32;;;;;;;;;56.60;47.00;32.50;94.50;;;;;;5040220;28;8754;-66
2022/03/28 10:08:59;;;;;;;;;58.80;47.80;32.40;95.30;;;;;;5038786;28;8766;-66
2022/03/28 10:11:26;;;;;;;;;62.40;50.60;32.40;95.30;;;;;;5039646;28;8906;-66
2022/03/28 10:13:53;;;;;;;;;61.20;50.00;32.30;96.10;;;;;;5038708;28;8958;-66
2022/03/28 10:16:19;;;;;;;;;62.00;50.00;32.30;96.30;;;;;;5040219;28;8746;-66
2022/03/28 10:18:47;;;;;;;;;63.60;50.80;32.30;97.00;;;;;;5024934;28;8764;-66
2022/03/28 10:21:15;;;;;;;;;62.40;49.80;32.30;96.40;;;;;;5019815;28;8771;-67
2022/03/28 10:24:07;;;;;;;;;61.60;50.20;32.20;97.20;;;;;;5020139;28;8788;-66
2022/03/28 10:26:36;;;;;;;;;63.40;50.20;32.10;97.10;;;;;;5018959;28;8764;-66
2022/03/28 10:29:08;;;;;;;;;59.00;47.40;32.20;97.40;;;;;;5020220;28;8772;-67
2022/03/28 10:31:35;;;;;;;;;60.00;49.20;32.10;97.60;;;;;;5018351;28;8801;-66
2022/03/28 10:34:03;;;;;;;;;54.00;43.20;32.10;97.90;;;;;;5035743;28;8790;-66
2022/03/28 10:36:32;;;;;;;;;61.40;49.60;32.10;97.20;;;;;;5037892;28;8798;-66
2022/03/28 10:39:35;;;;;;;;;57.20;46.40;32.10;99.00;;;;;;5039466;28;8757;-66
2022/03/28 10:42:24;;;;;;;;;58.00;48.80;32.00;97.60;;;;;;5037176;28;8781;-66
2022/03/28 10:45:05;;;;;;;;;63.60;51.60;31.90;98.30;;;;;;5039926;28;8762;-66
2022/03/28 10:47:59;;;;;;;;;61.00;49.20;31.80;98.10;;;;;;5036352;28;8760;-66
2022/03/28 10:50:53;;;;;;;;;67.80;52.60;31.70;97.60;;;;;;5019347;28;8854;-66
2022/03/28 10:53:26;;;;;;;;;65.60;53.20;31.70;97.70;;;;;;5019116;28;8861;-67
2022/03/28 10:56:00;;;;;;;;;56.60;45.60;31.80;97.70;;;;;;5018953;28;8814;-66
2022/03/28 10:58:32;;;;;;;;;63.20;50.80;31.80;97.40;;;;;;5018196;28;8759;-66
2022/03/28 11:01:11;;;;;;;;;62.20;50.80;31.80;98.20;;;;;;5020154;28;8736;-66
2022/03/28 11:04:05;;;;;;;;;65.20;53.20;32.00;97.60;;;;;;5030774;28;8801;-66
2022/03/28 11:06:53;;;;;;;;;65.60;53.00;31.90;97.30;;;;;;5039138;28;8808;-66
2022/03/28 11:09:56;;;;;;;;;59.00;49.00;31.80;96.40;;;;;;5039147;28;8782;-65
2022/03/28 11:12:39;;;;;;;;;58.50;46.25;31.60;93.90;;;;;;5038884;28;8814;-66
2022/03/28 11:15:19;;;;;;;;;54.75;44.50;31.50;93.70;;;;;;5038690;28;8846;-66
2022/03/28 11:18:04;;;;;;;;;49.00;41.00;31.20;92.70;;;;;;5033396;28;8830;-66
2022/03/28 11:20:52;;;;;;;;;49.25;41.50;30.90;91.50;;;;;;5019057;28;8778;-66
2022/03/28 11:23:20;;;;;;;;;52.75;44.25;30.90;91.50;;;;;;5018753;28;8764;-65
2022/03/28 11:25:51;;;;;;;;;54.00;45.25;30.70;94.90;;;;;;5018464;28;8756;-66
2022/03/28 11:28:27;;;;;;;;;53.25;44.00;29.60;95.90;;;;;;5019189;28;8792;-64
2022/03/28 11:31:08;;;;;;;;;49.75;42.75;29.50;97.30;;;;;;5019580;28;9484;-67
2022/03/28 11:33:40;;;;;;;;;48.00;39.67;29.50;98.30;;;;;;5029975;28;8773;-66
2022/03/28 11:36:11;;;;;;;;;54.75;44.00;29.30;99.90;;;;;;5038803;28;8797;-66
2022/03/28 11:38:43;;;;;;;;;56.00;42.75;28.50;99.90;;;;;;5038485;28;8887;-65
2022/03/28 11:41:12;;;;;;;;;51.25;42.50;28.40;99.90;;;;;;5038877;28;8776;-66
2022/03/28 11:43:40;;;;;;;;;55.75;45.75;28.40;99.90;;;;;;5038084;28;9430;-65
2022/03/28 11:46:27;;;;;;;;;60.80;48.80;28.50;99.90;;;;;;5038787;28;8829;-66
2022/03/28 11:49:01;;;;;;;;;55.00;45.00;28.40;99.90;;;;;;5024224;28;8765;-65
2022/03/28 11:51:38;;;;;;;;;51.75;44.00;28.50;99.90;;;;;;5018513;28;8946;-65
2022/03/28 11:54:16;;;;;;;;;50.25;43.00;28.60;99.90;;;;;;5018810;28;8760;-65
2022/03/28 11:59:42;;;;;;;;;55.00;45.25;28.50;99.90;;;;;;5018907;28;8879;-65
2022/03/28 12:02:08;;;;;;;;;50.75;43.25;28.50;99.90;;;;;;5019018;28;8774;-65
2022/03/28 12:04:44;;;;;;;;;52.50;41.75;28.50;99.90;;;;;;5018134;28;8841;-65
2022/03/28 12:07:11;;;;;;;;;51.00;43.00;28.70;99.90;;;;;;5001381;28;8748;-66
2022/03/28 12:09:43;;;;;;;;;53.00;43.75;28.80;99.90;;;;;;5017592;28;8788;-65
2022/03/28 12:12:12;;;;;;;;;51.50;41.25;28.60;99.90;;;;;;5017690;28;8780;-66
2022/03/28 12:14:40;;;;;;;;;48.25;40.50;28.50;99.90;;;;;;5017612;28;8868;-65
2022/03/28 12:17:08;;;;;;;;;54.75;44.75;28.60;99.90;;;;;;5017985;28;8780;-66
2022/03/28 12:19:34;;;;;;;;;53.25;42.50;28.60;99.90;;;;;;5017436;28;8824;-65
2022/03/28 12:22:14;;;;;;;;;52.50;43.50;27.80;99.90;;;;;;5018321;28;8791;-65
2022/03/28 12:24:53;;;;;;;;;55.50;46.50;27.50;99.90;;;;;;5016230;28;8768;-66
2022/03/28 12:27:20;;;;;;;;;47.75;40.00;27.40;99.90;;;;;;5017345;28;8796;-65
2022/03/28 12:29:47;;;;;;;;;47.50;39.50;27.60;99.90;;;;;;5016480;28;8760;-65
2022/03/28 12:32:19;;;;;;;;;46.75;40.00;27.70;99.90;;;;;;5018040;28;8769;-66
2022/03/28 12:34:46;;;;;;;;;49.50;40.50;27.70;99.90;;;;;;5036002;28;8778;-65
2022/03/28 12:37:16;;;;;;;;;46.50;39.00;27.80;99.90;;;;;;5037655;28;8821;-66
2022/03/28 12:39:46;;;;;;;;;43.50;34.25;28.00;99.90;;;;;;5037111;28;8735;-66
2022/03/28 12:42:25;;;;;;;;;43.00;36.00;28.30;99.90;;;;;;5044007;28;8775;-66
2022/03/28 12:44:56;;;;;;;;;42.00;35.75;28.10;99.90;;;;;;5037610;28;8776;-66
2022/03/28 12:47:27;;;;;;;;;42.75;36.75;28.00;99.90;;;;;;5033389;28;8944;-65
2022/03/28 12:49:54;;;;;;;;;47.50;38.75;27.90;99.90;;;;;;5016380;28;8749;-66
2022/03/28 12:52:24;;;;;;;;;48.50;39.25;28.30;99.90;;;;;;5017224;28;8805;-65